Time;durP1;ratioP1;P1;durP2;ratioP2;P2;SDS_P1;SDS_P2;PMS_P1;PMS_P2;Temp;Humidity;BMP_temperature;BMP_pressure;BME280_temperature;BME280_humidity;BME280_pressure;Samples;Min_cycle;Max_cycle;Signal;HPM_P1;HPM_P2
2024/01/04 07:59:02;;;;;;;8.15;1.50;;;;;;;5.51;92.87;95603.72;2105843;27;20559;-74
2024/01/04 08:01:18;;;;;;;10.15;1.92;;;;;;;5.82;91.27;95599.03;2091234;27;20554;-72
2024/01/04 08:02:19;;;;;;;8.85;1.40;;;;;;;5.97;90.70;95613.91;2085695;28;20199;-72
2024/01/04 08:03:21;;;;;;;5.05;1.00;;;;;;;5.94;88.63;95595.91;2085819;28;20370;-72
2024/01/04 08:06:50;;;;;;;10.20;1.50;;;;;;;6.15;86.59;95604.53;2083787;28;20564;-74
2024/01/04 08:07:52;;;;;;;4.57;1.10;;;;;;;6.15;86.65;95601.09;2073496;28;20189;-74
2024/01/04 08:08:53;;;;;;;7.85;1.35;;;;;;;6.04;86.53;95605.00;2081063;28;20228;-74
2024/01/04 08:10:59;;;;;;;5.68;1.40;;;;;;;6.45;85.60;95611.88;2083066;28;20563;-71
2024/01/04 08:12:01;;;;;;;8.93;1.45;;;;;;;6.91;83.34;95615.84;2076601;28;20292;-71
2024/01/04 08:13:02;;;;;;;6.53;1.63;;;;;;;7.29;82.61;95628.81;2078682;28;20194;-71
2024/01/04 08:14:04;;;;;;;15.73;2.00;;;;;;;7.35;80.68;95602.50;2080760;28;20197;-71
2024/01/04 08:15:08;;;;;;;15.60;1.60;;;;;;;7.47;80.18;95609.72;2078643;28;20578;-70
2024/01/04 08:16:10;;;;;;;10.43;1.58;;;;;;;7.63;80.00;95602.03;2070600;28;20252;-71
2024/01/04 08:17:11;;;;;;;9.20;1.48;;;;;;;7.76;78.32;95614.41;2069343;28;20196;-70
2024/01/04 08:18:13;;;;;;;10.88;1.42;;;;;;;7.79;78.25;95606.44;2071878;28;20223;-71
2024/01/04 08:19:15;;;;;;;7.03;1.35;;;;;;;7.92;78.79;95602.31;2071693;28;20240;-71
2024/01/04 08:20:18;;;;;;;8.57;1.70;;;;;;;8.10;77.16;95610.09;2068415;28;20581;-71
2024/01/04 08:21:20;;;;;;;4.78;1.52;;;;;;;8.41;77.07;95600.69;2070013;28;20209;-63
2024/01/04 08:22:21;;;;;;;12.65;1.80;;;;;;;8.58;76.50;95624.09;2062257;28;20744;-64
2024/01/04 08:23:22;;;;;;;6.95;1.35;;;;;;;8.61;75.64;95615.31;2071778;28;20209;-63
2024/01/04 08:24:24;;;;;;;10.27;1.50;;;;;;;8.69;74.86;95625.28;2069158;28;20280;-63
2024/01/04 08:25:27;;;;;;;12.32;2.28;;;;;;;8.47;75.23;95618.63;2072105;28;20229;-63
2024/01/04 08:26:29;;;;;;;7.13;1.05;;;;;;;8.40;75.72;95612.84;2074134;28;20204;-63
2024/01/04 08:27:30;;;;;;;8.27;2.38;;;;;;;8.52;75.54;95613.16;2070189;28;20598;-64
2024/01/04 08:28:32;;;;;;;5.50;1.20;;;;;;;8.71;74.50;95623.44;2070773;28;20288;-63
2024/01/04 08:29:33;;;;;;;8.63;1.70;;;;;;;8.89;74.08;95625.06;2071263;28;20198;-63
2024/01/04 08:30:35;;;;;;;10.80;1.45;;;;;;;9.11;73.65;95623.88;2067457;28;20237;-63
2024/01/04 08:31:37;;;;;;;9.25;1.55;;;;;;;8.93;73.88;95626.56;2068972;28;20198;-63
2024/01/04 08:32:39;;;;;;;9.93;1.50;;;;;;;9.07;73.08;95627.59;2070891;28;20685;-63
2024/01/04 08:33:41;;;;;;;7.10;1.50;;;;;;;8.77;74.42;95623.97;2071571;28;20198;-63
2024/01/04 08:34:42;;;;;;;6.32;1.50;;;;;;;8.44;74.81;95621.34;2071638;28;20912;-62
2024/01/04 08:35:44;;;;;;;6.45;1.30;;;;;;;7.74;76.26;95614.47;2077158;28;20224;-62
2024/01/04 08:36:45;;;;;;;4.60;1.40;;;;;;;8.09;76.38;95630.06;2074667;28;20232;-63
2024/01/04 08:37:47;;;;;;;9.77;2.00;;;;;;;8.24;76.19;95625.84;2073436;28;20217;-63
2024/01/04 08:38:49;;;;;;;8.10;1.58;;;;;;;7.49;77.91;95630.41;2073016;28;20227;-63
2024/01/04 08:39:51;;;;;;;13.73;1.98;;;;;;;6.81;79.75;95598.13;2074569;28;20197;-63
2024/01/04 08:40:52;;;;;;;6.70;1.63;;;;;;;6.79;81.28;95631.09;2071607;28;20968;-63
2024/01/04 08:41:53;;;;;;;7.07;1.52;;;;;;;6.46;82.18;95617.88;2068242;28;20348;-63
2024/01/04 08:42:56;;;;;;;3.67;1.20;;;;;;;6.48;82.18;95631.63;2070822;28;20293;-63
2024/01/04 08:43:58;;;;;;;5.97;1.33;;;;;;;6.46;82.56;95630.84;2069598;28;20202;-63
2024/01/04 08:44:59;;;;;;;8.90;1.63;;;;;;;6.39;84.13;95643.25;2071849;28;20284;-63
2024/01/04 08:46:01;;;;;;;6.40;0.98;;;;;;;6.32;83.38;95634.06;2071941;28;20281;-62
2024/01/04 08:47:03;;;;;;;12.40;1.38;;;;;;;6.22;83.69;95638.78;2071534;28;20220;-63
2024/01/04 08:48:05;;;;;;;9.75;1.40;;;;;;;6.15;84.02;95639.97;2073401;28;20277;-63
2024/01/04 08:49:07;;;;;;;7.53;1.30;;;;;;;6.07;84.05;95647.22;2068590;28;20719;-66
2024/01/04 08:50:11;;;;;;;9.88;3.17;;;;;;;6.01;84.96;95648.34;2070695;28;20225;-63
2024/01/04 08:51:13;;;;;;;13.65;3.15;;;;;;;6.03;84.18;95649.97;2067571;28;20212;-62
2024/01/04 08:52:15;;;;;;;9.85;1.35;;;;;;;6.07;83.98;95650.69;2068505;28;20242;-64
2024/01/04 09:02:48;;;;;;;12.60;2.78;;;;;;;5.81;84.85;95667.28;2082743;28;20532;-73
2024/01/04 09:03:50;;;;;;;5.90;1.42;;;;;;;6.14;84.23;95667.63;2082473;28;20227;-73
2024/01/04 09:04:51;;;;;;;9.05;1.80;;;;;;;6.15;83.59;95668.50;2072211;28;20199;-72
2024/01/04 09:05:53;;;;;;;14.93;3.25;;;;;;;7.06;80.64;95671.41;2070358;28;20292;-74
2024/01/04 09:06:54;;;;;;;9.57;1.50;;;;;;;6.83;80.78;95665.50;2074029;28;20212;-64
2024/01/04 09:07:56;;;;;;;10.35;1.58;;;;;;;7.42;78.97;95681.81;2071756;28;20197;-65
2024/01/04 09:08:59;;;;;;;7.30;1.38;;;;;;;7.71;77.49;95684.78;2072565;28;20872;-65
2024/01/04 09:10:01;;;;;;;5.90;1.27;;;;;;;8.05;76.43;95666.69;2072869;28;20213;-64
2024/01/04 09:11:03;;;;;;;3.40;1.20;;;;;;;8.91;74.60;95674.44;2072981;28;20559;-65
2024/01/04 09:12:05;;;;;;;8.95;1.10;;;;;;;9.47;71.88;95672.25;2073779;28;20229;-65
2024/01/04 09:13:06;;;;;;;6.63;1.30;;;;;;;9.67;70.25;95670.31;2073744;28;20197;-65
2024/01/04 09:14:11;;;;;;;7.63;1.50;;;;;;;9.90;69.24;95666.38;2074209;28;20235;-65
2024/01/04 09:15:13;;;;;;;6.78;1.30;;;;;;;10.09;68.77;95661.81;2073054;28;20487;-65
2024/01/04 09:16:15;;;;;;;5.65;1.20;;;;;;;10.38;67.79;95690.56;2073938;28;20202;-65
2024/01/04 09:17:17;;;;;;;5.15;1.27;;;;;;;10.93;66.73;95688.19;2074428;28;20216;-65
2024/01/04 09:18:19;;;;;;;9.57;1.40;;;;;;;10.48;66.65;95684.81;2070366;28;20236;-65
2024/01/04 09:19:21;;;;;;;7.80;1.63;;;;;;;10.56;67.13;95691.28;2071129;28;20276;-66
2024/01/04 09:20:24;;;;;;;6.32;1.52;;;;;;;10.88;66.59;95698.06;2073561;28;20225;-65
2024/01/04 09:21:26;;;;;;;4.47;1.50;;;;;;;10.77;66.23;95690.91;2073864;28;20217;-65
2024/01/04 09:22:27;;;;;;;7.82;1.60;;;;;;;9.85;68.34;95695.31;2071689;28;20919;-65
2024/01/04 09:23:29;;;;;;;6.68;1.48;;;;;;;9.19;69.25;95688.56;2073253;28;20257;-65
2024/01/04 09:24:32;;;;;;;13.90;1.40;;;;;;;8.32;71.99;95698.28;2070177;28;20228;-76
2024/01/04 09:25:34;;;;;;;6.00;1.50;;;;;;;7.84;74.05;95711.84;2063349;28;20274;-74
2024/01/04 09:26:40;;;;;;;6.28;1.15;;;;;;;7.41;76.26;95706.13;2066343;28;20296;-74
2024/01/04 09:27:41;;;;;;;8.45;1.65;;;;;;;7.21;77.55;95707.03;2072315;28;20205;-75
2024/01/04 09:28:43;;;;;;;7.50;2.00;;;;;;;7.03;78.73;95721.72;2073137;28;20609;-75
2024/01/04 09:29:47;;;;;;;9.10;1.70;;;;;;;6.90;80.56;95712.81;2069742;28;20574;-76
2024/01/04 09:30:49;;;;;;;9.15;1.23;;;;;;;6.76;80.05;95716.03;2070054;28;20221;-75
2024/01/04 09:31:50;;;;;;;5.28;1.23;;;;;;;6.61;81.16;95715.75;2073428;28;20653;-75
2024/01/04 09:32:52;;;;;;;6.50;1.30;;;;;;;6.45;81.91;95717.34;2070363;28;20194;-75
2024/01/04 09:33:55;;;;;;;5.80;1.52;;;;;;;6.38;81.73;95711.59;2071071;28;20206;-75
2024/01/04 09:34:56;;;;;;;9.40;1.00;;;;;;;6.45;81.50;95733.75;2079937;28;20213;-75
2024/01/04 09:35:58;;;;;;;8.63;1.40;;;;;;;6.91;80.87;95732.63;2082336;28;20196;-75
2024/01/04 09:37:00;;;;;;;4.25;1.05;;;;;;;6.66;80.82;95729.38;2072963;28;20203;-75
2024/01/04 09:38:02;;;;;;;7.88;1.35;;;;;;;6.54;81.87;95735.13;2074224;28;20211;-75
2024/01/04 09:39:04;;;;;;;5.40;1.30;;;;;;;6.32;82.11;95727.41;2074666;28;20200;-75
2024/01/04 09:40:06;;;;;;;8.90;1.45;;;;;;;6.31;82.98;95730.91;2073687;28;20196;-74
2024/01/04 09:41:22;;;;;;;5.43;1.45;;;;;;;6.40;83.48;95753.00;2073558;28;20202;-75
2024/01/04 09:42:25;;;;;;;5.28;1.00;;;;;;;6.67;83.31;95738.84;2082707;28;20751;-75
2024/01/04 09:43:30;;;;;;;6.20;1.30;;;;;;;6.80;82.80;95739.16;2080787;28;20570;-75
2024/01/04 09:44:35;;;;;;;7.30;1.05;;;;;;;6.72;83.57;95727.41;2073044;28;20257;-75
2024/01/04 09:45:38;;;;;;;6.25;1.20;;;;;;;6.66;83.24;95746.72;2069182;28;20271;-75
2024/01/04 09:46:41;;;;;;;5.90;1.25;;;;;;;6.53;83.90;95749.00;2071374;28;20205;-75
2024/01/04 09:47:43;;;;;;;8.23;0.85;;;;;;;6.58;83.99;95764.34;2073885;28;20312;-75
2024/01/04 09:48:53;;;;;;;9.82;1.25;;;;;;;6.60;84.52;95762.53;2073854;28;20602;-75
2024/01/04 09:49:55;;;;;;;5.70;0.90;;;;;;;6.61;83.27;95766.81;2075231;28;20204;-74
2024/01/04 09:50:57;;;;;;;7.00;1.17;;;;;;;6.54;84.31;95755.88;2067104;28;20236;-75
2024/01/04 09:51:58;;;;;;;2.10;0.90;;;;;;;6.70;83.71;95762.09;2074633;28;20620;-75
2024/01/04 09:53:01;;;;;;;7.60;1.13;;;;;;;6.89;82.46;95757.84;2074052;28;20285;-75
2024/01/04 09:54:04;;;;;;;7.80;1.48;;;;;;;6.83;82.25;95761.53;2074048;28;20200;-75
2024/01/04 09:55:08;;;;;;;5.15;1.10;;;;;;;6.78;83.74;95769.53;2079548;28;20204;-75
2024/01/04 09:56:14;;;;;;;2.90;0.80;;;;;;;6.51;84.73;95775.00;2080037;28;20248;-75
2024/01/04 09:57:17;;;;;;;4.35;1.00;;;;;;;6.33;86.17;95768.00;2074523;28;20271;-75
2024/01/04 10:25:18;;;;;;;8.85;1.55;;;;;;;4.61;100.00;95787.41;2080587;28;20568;-71
2024/01/04 10:26:22;;;;;;;3.83;1.27;;;;;;;4.79;100.00;95796.28;2078180;28;20213;-72
2024/01/04 10:31:13;;;;;;;9.13;2.28;;;;;;;5.09;99.97;95801.22;2101627;27;20760;-72
2024/01/04 10:32:15;;;;;;;4.70;1.30;;;;;;;5.23;99.96;95790.38;2097832;28;20199;-72
2024/01/04 10:33:19;;;;;;;8.70;1.10;;;;;;;5.59;98.58;95792.50;2100089;28;20203;-72
2024/01/04 10:34:21;;;;;;;3.50;1.25;;;;;;;5.60;94.80;95785.56;2099442;28;20642;-72
2024/01/04 10:35:27;;;;;;;9.65;1.35;;;;;;;5.78;93.93;95799.56;2098441;28;20243;-72
2024/01/04 10:36:29;;;;;;;4.80;1.00;;;;;;;6.43;91.07;95803.00;2092879;28;20287;-72
2024/01/04 10:37:31;;;;;;;5.57;1.00;;;;;;;6.80;89.99;95804.03;2091124;28;20211;-72
2024/01/04 10:38:33;;;;;;;5.40;0.88;;;;;;;6.34;88.22;95790.41;2091690;28;20197;-73
2024/01/04 10:39:38;;;;;;;3.65;0.90;;;;;;;6.09;90.02;95785.41;2091631;28;20200;-73
2024/01/04 10:40:40;;;;;;;4.05;1.00;;;;;;;6.15;91.62;95804.13;2090345;28;20239;-73
2024/01/04 10:41:42;;;;;;;5.75;1.20;;;;;;;6.32;91.16;95795.69;2089876;28;20659;-73
2024/01/04 10:42:53;;;;;;;4.65;1.10;;;;;;;6.91;89.85;95792.34;2088125;28;20457;-73
2024/01/04 10:44:05;;;;;;;6.50;0.90;;;;;;;7.46;86.25;95789.88;2089100;28;20199;-73
2024/01/04 10:45:10;;;;;;;2.75;0.90;;;;;;;8.05;83.49;95794.94;2089555;28;20247;-73
2024/01/04 10:46:13;;;;;;;2.97;1.20;;;;;;;7.64;83.14;95796.00;2088561;28;20200;-74
2024/01/04 10:47:14;;;;;;;3.40;0.85;;;;;;;8.89;79.35;95791.69;2091267;28;20192;-72
2024/01/04 10:48:17;;;;;;;3.60;0.88;;;;;;;9.40;76.57;95789.03;2092056;28;20237;-74
2024/01/04 10:49:20;;;;;;;3.60;0.88;;;;;;;9.80;76.64;95796.44;2083748;28;20199;-73
2024/01/04 10:50:25;;;;;;;5.40;0.93;;;;;;;10.41;73.89;95786.09;2074522;28;20226;-73
2024/01/04 10:51:29;;;;;;;2.22;0.85;;;;;;;10.41;72.51;95775.66;2090891;28;20196;-75
2024/01/04 10:52:31;;;;;;;1.77;0.60;;;;;;;10.45;72.37;95780.63;2089963;28;20233;-75
2024/01/04 10:53:41;;;;;;;6.57;0.80;;;;;;;8.93;75.04;95790.59;2090131;28;20220;-74
2024/01/04 10:54:43;;;;;;;4.95;0.77;;;;;;;7.92;78.88;95796.44;2091994;28;20204;-74
2024/01/04 10:55:48;;;;;;;3.88;0.77;;;;;;;7.43;82.39;95790.03;2086103;28;20239;-74
2024/01/04 10:56:50;;;;;;;3.00;0.70;;;;;;;7.01;83.84;95796.25;2088940;28;20834;-75
2024/01/04 10:57:52;;;;;;;7.43;0.85;;;;;;;6.57;86.10;95799.81;2091024;28;20234;-75
2024/01/04 10:58:55;;;;;;;2.17;0.68;;;;;;;6.36;86.96;95796.38;2089195;28;20249;-75
2024/01/04 10:59:58;;;;;;;1.90;0.80;;;;;;;6.25;88.12;95796.81;2085791;28;20224;-64
2024/01/04 11:01:00;;;;;;;3.45;0.95;;;;;;;6.23;88.41;95796.03;2089280;28;20655;-64
2024/01/04 11:02:02;;;;;;;2.92;0.80;;;;;;;6.19;89.06;95794.47;2089560;28;20804;-64
2024/01/04 11:03:05;;;;;;;2.25;0.65;;;;;;;6.15;89.12;95793.75;2089736;28;20255;-64
2024/01/04 11:04:07;;;;;;;4.55;0.70;;;;;;;6.04;90.08;95801.13;2090105;28;20226;-64
2024/01/04 11:05:12;;;;;;;1.85;0.80;;;;;;;6.02;91.38;95808.97;2088972;28;20643;-64
2024/01/04 11:06:15;;;;;;;3.05;0.70;;;;;;;5.82;91.45;95799.34;2091140;28;20195;-64
2024/01/04 11:07:16;;;;;;;2.15;0.70;;;;;;;5.81;92.90;95802.84;2092309;28;20277;-64
2024/01/04 11:18:22;;;;;;;10.68;0.77;;;;;;;5.26;95.75;95810.97;2084049;28;20580;-66
2024/01/04 11:19:33;;;;;;;1.80;0.80;;;;;;;5.26;95.72;95800.63;2081619;28;20200;-65
2024/01/04 11:28:10;;;;;;;2.70;0.98;;;;;;;5.19;96.01;95805.19;2092415;27;20570;-72
2024/01/04 11:29:14;;;;;;;2.17;0.80;;;;;;;5.38;94.67;95804.50;2088987;28;20789;-72
2024/01/04 11:30:16;;;;;;;2.75;0.80;;;;;;;5.37;95.03;95814.03;2085989;28;21951;-74
2024/01/04 11:31:23;;;;;;;16.67;1.25;;;;;;;5.51;94.52;95800.56;2081092;28;20193;-74
2024/01/04 11:32:25;;;;;;;2.58;0.90;;;;;;;6.59;91.29;95798.03;2079819;28;21015;-74
2024/01/04 11:33:27;;;;;;;2.97;1.00;;;;;;;7.77;85.90;95798.84;2080819;28;20923;-74
2024/01/04 11:34:29;;;;;;;8.07;1.73;;;;;;;8.67;81.28;95797.13;2079770;28;20201;-75
2024/01/04 11:35:38;;;;;;;3.20;1.10;;;;;;;8.93;78.73;95794.97;2071631;28;20819;-75
2024/01/04 11:36:40;;;;;;;2.50;0.90;;;;;;;8.90;77.55;95788.16;2081393;28;20221;-75
2024/01/04 11:37:50;;;;;;;8.40;0.98;;;;;;;9.22;75.76;95782.16;2082440;28;20199;-75
2024/01/04 11:38:57;;;;;;;3.28;1.13;;;;;;;9.81;74.62;95785.09;2074336;28;20210;-76
2024/01/04 11:40:08;;;;;;;1.70;0.93;;;;;;;9.96;73.56;95776.41;2076322;28;20319;-75
2024/01/04 11:41:10;;;;;;;6.88;1.08;;;;;;;10.35;73.28;95787.28;2075220;28;20254;-76
2024/01/04 11:42:13;;;;;;;3.80;0.90;;;;;;;10.16;72.00;95776.19;2080415;28;20530;-76
2024/01/04 11:43:16;;;;;;;7.10;0.80;;;;;;;9.66;72.34;95778.94;2078121;28;20203;-76
2024/01/04 11:44:17;;;;;;;6.60;1.05;;;;;;;10.18;72.12;95782.19;2079666;28;20197;-76
2024/01/04 11:45:19;;;;;;;8.32;1.10;;;;;;;10.30;71.68;95776.28;2078752;28;20600;-76
2024/01/04 11:46:23;;;;;;;3.33;0.93;;;;;;;10.42;71.02;95780.81;2073493;28;20254;-76
2024/01/04 11:47:26;;;;;;;4.28;1.02;;;;;;;10.82;70.05;95764.59;2078961;28;20205;-77
2024/01/04 11:48:28;;;;;;;3.13;0.95;;;;;;;11.20;69.46;95769.25;2077707;28;20204;-76
2024/01/04 11:49:30;;;;;;;6.70;1.70;;;;;;;10.84;69.75;95783.59;2076615;28;20205;-76
2024/01/04 11:50:31;;;;;;;6.30;1.10;;;;;;;10.70;69.48;95778.34;2076640;28;20287;-76
2024/01/04 11:51:40;;;;;;;3.65;0.90;;;;;;;10.70;70.03;95778.34;2081506;28;20201;-76
2024/01/04 11:52:42;;;;;;;2.78;1.00;;;;;;;10.63;70.34;95772.66;2089729;28;20199;-76
2024/01/04 11:53:46;;;;;;;3.50;1.00;;;;;;;10.09;70.94;95770.50;2089259;28;20272;-76
2024/01/04 11:54:48;;;;;;;6.25;1.10;;;;;;;9.96;71.81;95778.19;2078410;28;20683;-77
2024/01/04 11:55:49;;;;;;;5.50;1.17;;;;;;;10.06;71.27;95766.28;2076499;28;20255;-76
2024/01/04 11:56:51;;;;;;;5.20;1.10;;;;;;;9.56;71.21;95776.00;2080683;28;20212;-76
2024/01/04 11:58:07;;;;;;;6.00;1.38;;;;;;;10.21;71.28;95775.03;2080244;28;20311;-76
2024/01/04 11:59:10;;;;;;;6.75;1.20;;;;;;;10.24;71.17;95761.78;2079915;28;20649;-76
2024/01/04 12:00:15;;;;;;;6.25;1.20;;;;;;;10.53;70.26;95761.09;2072185;28;20228;-76
2024/01/04 12:01:23;;;;;;;9.27;1.48;;;;;;;10.97;69.20;95765.44;2081896;28;20189;-76
2024/01/04 12:02:25;;;;;;;6.93;1.60;;;;;;;10.48;69.63;95765.75;2081572;28;20248;-76
2024/01/04 12:03:29;;;;;;;3.85;1.20;;;;;;;10.55;68.70;95767.91;2079877;28;20861;-76
2024/01/04 12:04:31;;;;;;;9.90;1.25;;;;;;;10.41;68.92;95750.44;2079123;28;20201;-76
2024/01/04 12:05:34;;;;;;;7.10;1.20;;;;;;;10.79;69.57;95754.31;2081342;28;20220;-76
2024/01/04 12:06:39;;;;;;;6.97;1.10;;;;;;;11.65;67.44;95755.22;2080597;28;20622;-77
2024/01/04 12:07:40;;;;;;;9.55;1.73;;;;;;;10.26;67.71;95749.50;2075572;28;20289;-77
2024/01/04 12:08:42;;;;;;;9.05;1.42;;;;;;;10.64;68.49;95753.47;2079221;28;20280;-76
2024/01/04 12:09:54;;;;;;;9.40;1.10;;;;;;;11.05;67.75;95767.59;2079372;28;20608;-77
2024/01/04 12:11:01;;;;;;;4.18;0.90;;;;;;;10.79;66.94;95762.13;2079817;28;20225;-77
2024/01/04 12:12:04;;;;;;;5.03;1.40;;;;;;;10.68;67.46;95757.56;2078292;28;20668;-77
2024/01/04 12:13:06;;;;;;;6.18;1.48;;;;;;;10.75;67.07;95753.66;2078068;28;20205;-77
2024/01/04 12:14:09;;;;;;;3.90;1.25;;;;;;;10.50;67.01;95756.88;2082070;28;20241;-76
2024/01/04 12:15:11;;;;;;;10.13;1.30;;;;;;;10.30;67.31;95761.44;2080509;28;20276;-76
2024/01/04 12:16:13;;;;;;;8.50;1.38;;;;;;;10.02;67.85;95746.53;2080110;28;20206;-77
2024/01/04 12:17:14;;;;;;;3.47;1.23;;;;;;;10.30;68.59;95769.28;2078764;28;20201;-77
2024/01/04 12:18:21;;;;;;;15.55;1.95;;;;;;;10.34;68.29;95761.28;2072372;28;20338;-77
2024/01/04 12:19:27;;;;;;;14.40;1.77;;;;;;;10.02;68.48;95762.19;2069462;28;20194;-77
2024/01/04 12:20:29;;;;;;;7.78;1.30;;;;;;;9.30;72.08;95754.78;2072183;28;20819;-77
2024/01/04 12:21:31;;;;;;;4.85;1.25;;;;;;;9.37;73.13;95750.13;2080507;28;20643;-77
2024/01/04 12:22:33;;;;;;;14.98;1.90;;;;;;;9.61;70.33;95745.31;2081349;28;20190;-76
2024/01/04 12:23:36;;;;;;;3.10;1.08;;;;;;;9.27;70.59;95770.59;2079920;28;20596;-77
2024/01/04 12:24:40;;;;;;;13.65;1.48;;;;;;;9.18;69.94;95749.41;2081863;28;20251;-76
2024/01/04 12:25:42;;;;;;;8.90;1.92;;;;;;;9.54;70.32;95764.00;2077009;28;20907;-76
2024/01/04 12:26:45;;;;;;;7.90;1.20;;;;;;;10.10;69.23;95754.75;2081716;28;20193;-77
2024/01/04 12:27:47;;;;;;;7.28;1.45;;;;;;;10.47;68.96;95764.06;2079513;28;20221;-77
2024/01/04 12:28:53;;;;;;;7.97;1.35;;;;;;;9.55;71.07;95776.94;2079811;28;20220;-77
2024/01/04 12:29:55;;;;;;;5.75;1.75;;;;;;;9.61;71.02;95773.13;2080384;28;20711;-77
2024/01/04 12:30:58;;;;;;;5.15;1.60;;;;;;;9.97;71.51;95753.78;2066597;28;20437;-77
2024/01/04 12:32:03;;;;;;;4.68;1.35;;;;;;;9.78;72.05;95770.44;2078222;28;20261;-76
2024/01/04 12:33:08;;;;;;;10.05;1.20;;;;;;;10.48;71.25;95758.72;2077600;28;20193;-77
2024/01/04 12:34:11;;;;;;;9.55;1.50;;;;;;;11.04;69.85;95764.13;2080510;28;20200;-78
2024/01/04 12:35:17;;;;;;;5.10;1.35;;;;;;;9.91;70.96;95754.94;2051347;28;20230;-77
2024/01/04 12:36:23;;;;;;;8.40;1.70;;;;;;;9.26;72.28;95765.47;2079030;28;20201;-70
2024/01/04 12:37:24;;;;;;;17.45;3.30;;;;;;;8.53;74.95;95758.78;2079248;28;20193;-73
2024/01/04 12:38:26;;;;;;;9.27;2.72;;;;;;;8.19;75.60;95763.06;2080536;28;20209;-76
2024/01/04 12:39:31;;;;;;;12.40;4.60;;;;;;;7.91;76.48;95763.53;2073593;28;20242;-74
2024/01/04 12:40:40;;;;;;;13.02;2.38;;;;;;;8.11;75.93;95752.19;2061182;28;20729;-77
2024/01/04 12:41:48;;;;;;;7.35;1.67;;;;;;;8.36;76.43;95767.41;2074693;28;20244;-77
2024/01/04 12:42:50;;;;;;;6.70;1.30;;;;;;;8.11;76.13;95767.78;2077777;28;20201;-77
2024/01/04 12:43:53;;;;;;;8.10;1.30;;;;;;;8.93;74.94;95777.59;2076887;28;20202;-77
2024/01/04 12:44:55;;;;;;;10.60;1.25;;;;;;;8.89;73.89;95767.41;2077521;28;20201;-74
2024/01/04 12:46:04;;;;;;;7.25;1.80;;;;;;;9.29;73.06;95773.13;2075783;28;20771;-77
2024/01/04 12:47:11;;;;;;;10.85;1.80;;;;;;;9.64;72.06;95767.78;2075968;28;20212;-77
2024/01/04 12:48:12;;;;;;;15.95;2.00;;;;;;;9.83;70.92;95756.31;2076993;28;20674;-77
2024/01/04 12:49:15;;;;;;;5.25;1.63;;;;;;;10.04;70.79;95755.09;2074901;28;20568;-77
2024/01/04 12:50:22;;;;;;;5.00;1.20;;;;;;;9.83;69.40;95705.00;2068539;28;20227;-77
2024/01/04 12:51:27;;;;;;;12.77;1.63;;;;;;;10.34;68.59;95750.84;2072908;28;20697;-77
2024/01/04 12:52:29;;;;;;;10.73;1.50;;;;;;;10.71;68.36;95741.69;2077282;28;20210;-77
2024/01/04 12:53:31;;;;;;;8.50;1.48;;;;;;;10.35;68.04;95747.28;2075784;28;20201;-76
2024/01/04 12:54:32;;;;;;;9.70;1.40;;;;;;;10.28;67.77;95747.66;2075212;28;20904;-77
2024/01/04 12:55:34;;;;;;;6.85;1.65;;;;;;;9.64;68.07;95759.94;2076506;28;20234;-76
2024/01/04 12:56:37;;;;;;;10.40;1.35;;;;;;;9.55;69.87;95771.72;2076832;28;20212;-77
2024/01/04 12:57:38;;;;;;;11.98;1.58;;;;;;;8.51;71.63;95752.84;2076022;28;20204;-76
2024/01/04 12:58:41;;;;;;;11.90;2.83;;;;;;;8.32;72.88;95764.13;2075634;28;20568;-76
2024/01/04 12:59:46;;;;;;;6.40;1.42;;;;;;;8.17;74.37;95768.31;2070819;28;20585;-76
2024/01/04 13:00:47;;;;;;;9.82;1.63;;;;;;;7.95;74.24;95770.31;2072582;28;20220;-76
2024/01/04 13:01:49;;;;;;;6.57;1.63;;;;;;;8.56;73.12;95776.00;2074229;28;20205;-76
2024/01/04 13:02:52;;;;;;;4.70;1.30;;;;;;;9.08;71.45;95762.09;2075675;28;20617;-76
2024/01/04 13:03:53;;;;;;;6.47;1.30;;;;;;;9.37;70.29;95780.53;2071101;28;20297;-77
2024/01/04 13:04:55;;;;;;;6.38;1.20;;;;;;;9.54;69.58;95777.03;2071103;28;20368;-77
2024/01/04 13:05:57;;;;;;;19.13;1.40;;;;;;;9.76;69.25;95763.63;2068457;28;20713;-78
2024/01/04 13:06:59;;;;;;;5.25;1.20;;;;;;;9.98;69.63;95778.94;2074194;28;20200;-77
2024/01/04 13:08:00;;;;;;;6.38;1.40;;;;;;;9.91;70.67;95768.00;2079058;28;20196;-77
2024/01/04 13:09:02;;;;;;;5.80;1.35;;;;;;;9.46;71.61;95759.19;2076212;28;20280;-77
2024/01/04 13:10:07;;;;;;;8.05;1.73;;;;;;;9.44;71.92;95777.50;2075607;28;20200;-78
2024/01/04 13:11:10;;;;;;;11.95;1.30;;;;;;;8.86;72.29;95762.34;2069225;28;20224;-77
2024/01/04 13:12:12;;;;;;;6.70;1.20;;;;;;;8.59;73.61;95771.50;2069740;28;20202;-77
2024/01/04 13:13:13;;;;;;;7.88;1.80;;;;;;;8.29;73.99;95756.50;2071492;28;20229;-77
2024/01/04 13:14:15;;;;;;;8.68;1.30;;;;;;;8.01;74.20;95762.19;2075713;28;20194;-77
2024/01/04 13:15:16;;;;;;;8.25;1.40;;;;;;;7.73;74.48;95763.50;2057986;28;20194;-77
2024/01/04 13:16:18;;;;;;;4.50;1.30;;;;;;;8.15;75.12;95777.97;2075256;28;20221;-78
2024/01/04 13:17:20;;;;;;;24.42;9.68;;;;;;;8.69;72.82;95738.03;2076843;28;20685;-77
2024/01/04 13:18:21;;;;;;;11.45;3.65;;;;;;;8.32;73.35;95761.53;2074327;28;20293;-71
2024/01/04 13:19:23;;;;;;;33.10;13.07;;;;;;;8.30;74.73;95772.94;2075546;28;20194;-74
2024/01/04 13:20:25;;;;;;;14.30;3.08;;;;;;;8.90;73.83;95762.13;2073095;28;20579;-77
2024/01/04 13:21:28;;;;;;;12.00;1.80;;;;;;;8.53;73.98;95779.59;2073077;28;20336;-77
2024/01/04 13:22:31;;;;;;;4.90;1.20;;;;;;;8.26;74.98;95774.84;2074814;28;20649;-76
2024/01/04 13:23:33;;;;;;;7.13;1.10;;;;;;;7.96;75.50;95766.78;2074485;28;20222;-77
2024/01/04 13:24:35;;;;;;;12.60;1.60;;;;;;;8.14;75.02;95762.47;2074739;28;20194;-77
2024/01/04 13:25:37;;;;;;;14.48;1.10;;;;;;;8.76;73.67;95765.44;2073060;28;20226;-77
2024/01/04 13:26:39;;;;;;;5.43;1.33;;;;;;;8.63;74.06;95757.44;2074000;28;20539;-76
2024/01/04 13:27:45;;;;;;;6.63;1.20;;;;;;;8.51;74.21;95752.84;2072018;28;20233;-77
2024/01/04 13:28:47;;;;;;;8.88;1.42;;;;;;;8.74;74.28;95758.63;2069260;28;20210;-77
2024/01/04 13:29:48;;;;;;;5.25;1.45;;;;;;;8.91;72.97;95744.72;2072297;28;20206;-76
2024/01/04 13:30:50;;;;;;;12.05;1.52;;;;;;;9.33;72.50;95761.59;2067891;28;20239;-77
2024/01/04 13:31:52;;;;;;;13.80;2.20;;;;;;;9.44;71.94;95759.25;2073468;28;20200;-77
2024/01/04 13:32:54;;;;;;;4.55;1.30;;;;;;;9.97;71.64;95765.03;2074463;28;20639;-78
2024/01/04 13:33:56;;;;;;;10.18;1.48;;;;;;;10.07;70.94;95760.16;2072549;28;20285;-77
2024/01/04 13:34:59;;;;;;;7.40;2.05;;;;;;;9.77;70.71;95758.34;2070521;28;20807;-78
2024/01/04 13:36:02;;;;;;;5.45;1.13;;;;;;;9.30;71.31;95752.19;2058582;28;20725;-78
2024/01/04 13:37:05;;;;;;;9.82;1.60;;;;;;;9.43;71.80;95754.13;2068559;28;20233;-78
2024/01/04 13:38:09;;;;;;;4.97;1.30;;;;;;;9.79;70.43;95750.44;2070690;28;20636;-78
2024/01/04 13:39:16;;;;;;;7.43;1.65;;;;;;;9.91;69.42;95765.38;2071696;28;20190;-77
2024/01/04 13:40:19;;;;;;;6.25;1.20;;;;;;;9.74;70.11;95775.94;2067908;28;20202;-78
2024/01/04 13:41:22;;;;;;;7.45;1.35;;;;;;;9.45;70.96;95779.19;2070815;28;20194;-78
2024/01/04 13:42:24;;;;;;;11.30;1.80;;;;;;;9.59;70.78;95759.38;2069986;28;20194;-78
2024/01/04 13:43:26;;;;;;;8.48;2.15;;;;;;;9.04;70.24;95750.13;2069715;28;20199;-78
2024/01/04 13:44:29;;;;;;;6.85;1.25;;;;;;;9.19;71.52;95762.34;2077915;28;20220;-78
2024/01/04 13:45:32;;;;;;;11.15;2.13;;;;;;;9.12;70.35;95730.56;2071105;28;20270;-78
2024/01/04 13:46:37;;;;;;;4.35;1.10;;;;;;;8.98;71.34;95756.53;2069960;28;20201;-78
2024/01/04 13:47:44;;;;;;;6.75;1.55;;;;;;;9.22;71.44;95762.19;2070009;28;20205;-78
2024/01/04 13:48:46;;;;;;;7.18;1.50;;;;;;;9.72;71.21;95781.22;2075047;28;20297;-67
2024/01/04 13:49:48;;;;;;;9.40;1.90;;;;;;;9.50;70.47;95775.47;2076540;28;20830;-67
2024/01/04 13:50:50;;;;;;;7.22;1.45;;;;;;;9.38;70.60;95775.22;2068010;28;20224;-67
2024/01/04 13:51:51;;;;;;;4.82;1.40;;;;;;;9.22;70.27;95775.22;2074692;28;20585;-67
2024/01/04 13:52:53;;;;;;;7.60;1.70;;;;;;;9.15;72.13;95768.63;2072291;28;20290;-67
2024/01/04 13:53:55;;;;;;;10.52;1.50;;;;;;;9.57;71.56;95771.63;2073746;28;20205;-67
2024/01/04 13:54:56;;;;;;;13.68;3.50;;;;;;;9.42;71.10;95779.38;2082014;28;20267;-76
2024/01/04 13:55:58;;;;;;;10.55;1.50;;;;;;;9.10;72.84;95774.13;2078930;28;20257;-76
2024/01/04 13:56:59;;;;;;;12.95;1.50;;;;;;;8.59;73.65;95755.88;2075473;28;20621;-75
2024/01/04 13:58:01;;;;;;;5.15;1.55;;;;;;;8.21;73.98;95763.00;2080573;28;20206;-76
2024/01/04 13:59:02;;;;;;;6.65;1.52;;;;;;;7.92;75.56;95771.31;2079639;28;20193;-76
2024/01/04 14:00:08;;;;;;;12.20;1.98;;;;;;;7.72;76.52;95771.38;2069951;28;20693;-77